Time;durP1;ratioP1;P1;durP2;ratioP2;P2;SDS_P1;SDS_P2;PMS_P1;PMS_P2;Temp;Humidity;BMP_temperature;BMP_pressure;BME280_temperature;BME280_humidity;BME280_pressure;Samples;Min_cycle;Max_cycle;Signal;HPM_P1;HPM_P2
2021/03/31 00:01:31;;;;;;;14.02;4.78;;;19.40;61.70;;;;;;6214319;23;20000;-74
2021/03/31 00:03:57;;;;;;;9.02;4.72;;;19.40;61.70;;;;;;6213639;23;20005;-78
2021/03/31 00:06:22;;;;;;;6.78;4.50;;;19.40;61.60;;;;;;6214257;23;20001;-76
2021/03/31 00:08:48;;;;;;;6.18;5.22;;;19.40;61.50;;;;;;6213893;23;19997;-73
2021/03/31 00:11:14;;;;;;;6.97;4.93;;;19.40;61.70;;;;;;6215075;23;20461;-72
2021/03/31 00:13:40;;;;;;;9.00;4.45;;;19.40;61.60;;;;;;6213986;23;20012;-73
2021/03/31 00:16:05;;;;;;;6.47;4.28;;;19.40;61.60;;;;;;6213513;23;19997;-73
2021/03/31 00:18:32;;;;;;;7.10;4.22;;;19.40;61.60;;;;;;6214267;23;20004;-72
2021/03/31 00:20:58;;;;;;;7.50;4.93;;;19.40;61.70;;;;;;6213250;23;20050;-72
2021/03/31 00:23:26;;;;;;;8.70;5.35;;;19.40;61.70;;;;;;6212619;23;20008;-75
2021/03/31 00:25:52;;;;;;;8.30;5.57;;;19.30;61.70;;;;;;6214031;23;20047;-73
2021/03/31 00:28:18;;;;;;;8.52;5.28;;;19.40;61.70;;;;;;6214185;23;20004;-70
2021/03/31 00:30:45;;;;;;;7.90;4.93;;;19.30;61.60;;;;;;6213801;23;20028;-69
2021/03/31 00:33:11;;;;;;;7.47;4.72;;;19.30;62.30;;;;;;6213273;23;20020;-70
2021/03/31 00:35:37;;;;;;;9.48;5.25;;;19.30;61.30;;;;;;6214019;23;20001;-73
2021/03/31 00:38:04;;;;;;;7.00;5.10;;;19.30;61.10;;;;;;6213324;23;20017;-72
2021/03/31 00:40:36;;;;;;;7.88;4.75;;;19.30;60.80;;;;;;6187003;23;20027;-69
2021/03/31 00:43:02;;;;;;;8.75;5.25;;;19.30;60.70;;;;;;6186770;23;20008;-75
2021/03/31 00:45:28;;;;;;;6.68;4.93;;;19.20;60.90;;;;;;6213983;23;20503;-75
2021/03/31 00:47:53;;;;;;;8.20;5.07;;;19.20;60.80;;;;;;6213475;23;20027;-70
2021/03/31 00:50:20;;;;;;;7.28;4.78;;;19.20;60.70;;;;;;6214321;23;20021;-73
2021/03/31 00:52:48;;;;;;;7.55;5.55;;;19.20;60.80;;;;;;6212446;23;20081;-69
2021/03/31 00:55:15;;;;;;;9.95;5.32;;;19.20;60.60;;;;;;6213759;23;20001;-70
2021/03/31 00:57:41;;;;;;;7.93;5.07;;;19.20;60.50;;;;;;6214161;23;20004;-70
2021/03/31 01:00:09;;;;;;;10.02;5.45;;;19.20;60.50;;;;;;6213297;23;20015;-75
2021/03/31 01:02:36;;;;;;;7.30;5.13;;;19.20;60.40;;;;;;6213373;23;20020;-71
2021/03/31 01:05:09;;;;;;;7.68;5.30;;;19.20;60.30;;;;;;6212909;23;20345;-71
2021/03/31 01:07:35;;;;;;;6.72;4.97;;;19.20;60.20;;;;;;6213971;23;20008;-71
2021/03/31 01:10:00;;;;;;;7.68;4.38;;;19.20;60.20;;;;;;6213938;23;20008;-73
2021/03/31 01:12:53;;;;;;;9.80;5.85;;;19.10;60.10;;;;;;6186520;23;20007;-70
2021/03/31 01:15:35;;;;;;;6.45;5.05;;;19.10;60.10;;;;;;6187426;23;20071;-70
2021/03/31 01:18:38;;;;;;;8.60;5.22;;;19.10;60.00;;;;;;6213066;23;20001;-69
2021/03/31 01:21:40;;;;;;;6.20;4.55;;;19.10;59.90;;;;;;6213305;23;20050;-69
2021/03/31 01:24:36;;;;;;;8.38;4.93;;;19.10;59.90;;;;;;6212618;23;19996;-70
2021/03/31 01:27:12;;;;;;;9.00;4.60;;;19.10;59.90;;;;;;6213429;23;20004;-70
2021/03/31 01:29:49;;;;;;;8.20;4.95;;;19.10;59.90;;;;;;6212805;23;20055;-70
2021/03/31 01:33:02;;;;;;;6.43;4.75;;;19.10;59.80;;;;;;6213718;23;20453;-71
2021/03/31 01:35:28;;;;;;;7.13;4.63;;;19.10;59.80;;;;;;6160188;23;20012;-72
2021/03/31 01:38:00;;;;;;;8.82;5.20;;;19.00;59.70;;;;;;6213318;23;20337;-69
2021/03/31 01:40:26;;;;;;;6.60;4.35;;;19.00;59.70;;;;;;6210518;23;20071;-69
2021/03/31 01:43:02;;;;;;;8.32;5.18;;;19.00;59.80;;;;;;6210851;23;20001;-69
2021/03/31 01:45:29;;;;;;;;;;;19.00;59.70;;;;;;6214177;23;20464;-70
2021/03/31 01:47:58;;;;;;;8.90;5.20;;;19.00;59.70;;;;;;6207979;23;19979;-70
2021/03/31 01:50:25;;;;;;;7.68;4.68;;;19.00;59.70;;;;;;6213790;23;19997;-69
2021/03/31 01:52:50;;;;;;;8.57;5.68;;;19.00;59.60;;;;;;6188009;23;20036;-71
2021/03/31 01:55:16;;;;;;;5.75;4.28;;;19.00;60.10;;;;;;6214676;23;20050;-69
2021/03/31 01:57:43;;;;;;;8.70;5.63;;;19.00;59.60;;;;;;6215305;23;20315;-69
2021/03/31 02:00:13;;;;;;;6.65;4.57;;;18.90;59.40;;;;;;6214509;23;20008;-70
2021/03/31 02:02:43;;;;;;;8.77;4.65;;;18.90;59.50;;;;;;6215595;23;20472;-71
2021/03/31 02:05:10;;;;;;;7.38;4.60;;;18.90;59.40;;;;;;6188773;23;20008;-69
2021/03/31 02:07:38;;;;;;;6.55;4.40;;;18.90;59.20;;;;;;6215691;23;20001;-73
2021/03/31 02:10:05;;;;;;;6.43;4.32;;;18.90;59.20;;;;;;6215059;23;20001;-70
2021/03/31 02:12:31;;;;;;;7.85;5.30;;;18.90;59.20;;;;;;6214443;23;20012;-76
2021/03/31 02:14:58;;;;;;;8.20;4.68;;;18.90;59.20;;;;;;6214781;23;20005;-70
2021/03/31 02:17:28;;;;;;;11.15;4.78;;;18.90;59.20;;;;;;6215382;23;20425;-74
2021/03/31 02:19:56;;;;;;;9.02;5.38;;;18.80;59.10;;;;;;6215593;23;20007;-70
2021/03/31 02:22:24;;;;;;;6.32;4.75;;;18.80;59.20;;;;;;6215493;23;19997;-72
2021/03/31 02:24:51;;;;;;;6.05;4.50;;;18.80;59.20;;;;;;6214319;23;20009;-70
2021/03/31 02:27:17;;;;;;;7.47;4.47;;;18.90;59.10;;;;;;6215501;23;20429;-75
2021/03/31 02:29:47;;;;;;;7.43;4.90;;;18.80;59.00;;;;;;6214449;23;20105;-70
2021/03/31 02:32:15;;;;;;;9.65;4.47;;;18.80;59.00;;;;;;6215146;23;20083;-75
2021/03/31 02:34:41;;;;;;;6.93;4.95;;;18.80;59.00;;;;;;6214726;23;20091;-76
2021/03/31 02:37:08;;;;;;;6.80;4.63;;;18.80;59.10;;;;;;6188283;23;20453;-74
2021/03/31 02:39:38;;;;;;;7.30;4.88;;;18.80;59.10;;;;;;6215306;23;20008;-75
2021/03/31 02:42:08;;;;;;;7.55;4.80;;;18.80;59.10;;;;;;6214673;23;19997;-69
2021/03/31 02:44:39;;;;;;;7.75;4.60;;;18.80;59.10;;;;;;6215577;23;20011;-73
2021/03/31 02:47:09;;;;;;;7.68;5.53;;;18.70;58.90;;;;;;6214598;23;20043;-73
2021/03/31 02:49:37;;;;;;;7.20;4.97;;;18.80;59.00;;;;;;6215287;23;20005;-72
2021/03/31 02:52:05;;;;;;;6.70;4.35;;;18.80;59.00;;;;;;6214696;23;20004;-73
2021/03/31 02:54:32;;;;;;;7.43;4.70;;;18.80;58.90;;;;;;6214315;23;20012;-71
2021/03/31 02:56:57;;;;;;;8.48;5.80;;;18.70;58.80;;;;;;6214944;23;19997;-71
2021/03/31 02:59:23;;;;;;;6.80;4.57;;;18.70;58.60;;;;;;6214972;23;20012;-75
2021/03/31 03:01:49;;;;;;;8.43;4.82;;;18.70;58.60;;;;;;6215116;23;20011;-78
2021/03/31 03:04:15;;;;;;;7.28;4.78;;;18.70;58.40;;;;;;6212989;23;20461;-76
2021/03/31 03:06:41;;;;;;;5.97;4.03;;;18.70;58.50;;;;;;6215293;23;20008;-77
2021/03/31 03:09:08;;;;;;;7.05;4.88;;;18.70;58.10;;;;;;6214646;23;20389;-75
2021/03/31 03:11:35;;;;;;;7.40;4.72;;;18.70;58.50;;;;;;6214455;23;20059;-74
2021/03/31 03:14:01;;;;;;;7.07;5.05;;;18.70;58.50;;;;;;6212800;23;20098;-72
2021/03/31 03:16:27;;;;;;;7.15;5.18;;;18.70;58.30;;;;;;6215622;23;20385;-77
2021/03/31 03:18:53;;;;;;;6.90;4.85;;;18.70;58.40;;;;;;6214210;23;20443;-73
2021/03/31 03:21:20;;;;;;;6.28;4.50;;;18.70;58.30;;;;;;6214077;23;20009;-73
2021/03/31 03:23:46;;;;;;;6.32;4.90;;;18.70;58.30;;;;;;6212909;23;20012;-77
2021/03/31 03:26:15;;;;;;;7.75;4.35;;;18.60;58.30;;;;;;6213194;23;20004;-72
2021/03/31 03:28:45;;;;;;;9.10;5.10;;;18.60;58.30;;;;;;6213750;23;20016;-73
2021/03/31 03:31:12;;;;;;;6.25;4.35;;;18.60;58.20;;;;;;6214950;23;20004;-72
2021/03/31 03:33:38;;;;;;;6.22;4.60;;;18.60;58.20;;;;;;6213853;23;20358;-72
2021/03/31 03:36:11;;;;;;;5.55;3.97;;;18.60;58.10;;;;;;6213903;23;20000;-72
2021/03/31 03:38:37;;;;;;;7.63;4.78;;;18.60;58.10;;;;;;6211152;23;20008;-73
2021/03/31 03:41:14;;;;;;;6.35;4.03;;;18.50;58.20;;;;;;6213617;23;20426;-72
2021/03/31 03:43:41;;;;;;;8.40;5.07;;;18.60;58.10;;;;;;6213981;23;20011;-74
2021/03/31 03:46:09;;;;;;;8.75;5.32;;;18.60;58.20;;;;;;6214615;23;20020;-70
2021/03/31 03:48:35;;;;;;;6.60;4.35;;;18.50;58.10;;;;;;6213413;23;20055;-70
2021/03/31 03:51:05;;;;;;;5.95;4.65;;;18.50;58.10;;;;;;6214894;23;20433;-71
2021/03/31 03:53:31;;;;;;;7.45;4.80;;;18.50;58.20;;;;;;6187579;23;20099;-69
2021/03/31 03:55:59;;;;;;;7.55;5.18;;;18.50;58.30;;;;;;6214012;23;20055;-69
2021/03/31 03:58:26;;;;;;;8.15;4.28;;;18.50;58.10;;;;;;6209721;23;20005;-69
2021/03/31 04:00:52;;;;;;;6.57;4.45;;;18.50;57.70;;;;;;6214227;23;20008;-72
2021/03/31 04:03:18;;;;;;;5.82;3.83;;;18.50;57.70;;;;;;6213985;23;20078;-76
2021/03/31 04:05:43;;;;;;;5.43;4.18;;;18.50;57.70;;;;;;6213515;23;20425;-74
2021/03/31 04:08:09;;;;;;;6.60;4.38;;;18.50;57.50;;;;;;6214218;23;20012;-78
2021/03/31 04:10:35;;;;;;;6.43;4.57;;;18.50;57.60;;;;;;6213241;23;20000;-74
2021/03/31 04:13:02;;;;;;;5.93;4.53;;;18.50;57.60;;;;;;6214265;23;20013;-78
2021/03/31 04:15:30;;;;;;;6.40;4.78;;;18.50;57.50;;;;;;6214766;23;20372;-78
2021/03/31 04:17:59;;;;;;;6.13;4.18;;;18.50;57.80;;;;;;6187221;23;20011;-71
2021/03/31 04:20:26;;;;;;;6.07;4.22;;;18.50;57.60;;;;;;6214275;23;20004;-74
2021/03/31 04:22:52;;;;;;;7.95;4.65;;;18.50;57.70;;;;;;6212903;23;20000;-74
2021/03/31 04:25:21;;;;;;;6.35;4.30;;;18.50;57.50;;;;;;6213572;23;20000;-76
2021/03/31 04:27:48;;;;;;;87.43;72.88;;;18.40;57.60;;;;;;6213860;23;20016;-78
2021/03/31 04:30:15;;;;;;;5.68;3.92;;;18.40;57.50;;;;;;6213723;23;20008;-73
2021/03/31 04:32:44;;;;;;;6.15;3.63;;;18.40;57.60;;;;;;6213610;23;20314;-75
2021/03/31 04:35:11;;;;;;;7.45;4.57;;;18.40;57.60;;;;;;6213696;23;20433;-78
2021/03/31 04:37:37;;;;;;;6.90;4.80;;;18.40;57.60;;;;;;6214167;23;20034;-75
2021/03/31 04:40:05;;;;;;;6.65;3.97;;;18.30;57.60;;;;;;6214269;23;20334;-76
2021/03/31 04:42:31;;;;;;;6.75;4.18;;;18.40;57.50;;;;;;6213776;23;20001;-76
2021/03/31 04:44:56;;;;;;;7.95;4.45;;;18.40;57.50;;;;;;6214069;23;20008;-74
2021/03/31 04:47:22;;;;;;;8.88;4.75;;;18.30;57.40;;;;;;6213741;23;20005;-75
2021/03/31 04:49:48;;;;;;;6.72;4.60;;;18.40;57.50;;;;;;6213919;23;20051;-75
2021/03/31 04:52:13;;;;;;;6.20;4.63;;;18.40;57.40;;;;;;6213247;23;20357;-74
2021/03/31 04:54:39;;;;;;;6.10;4.53;;;18.40;57.40;;;;;;6213755;23;20100;-75
2021/03/31 04:57:05;;;;;;;6.53;4.63;;;18.40;57.30;;;;;;6214071;23;20004;-71
2021/03/31 04:59:31;;;;;;;7.18;4.45;;;18.40;57.30;;;;;;6212687;23;20492;-73
2021/03/31 05:01:56;;;;;;;9.40;4.82;;;18.30;57.30;;;;;;6186371;23;20036;-72
2021/03/31 05:04:22;;;;;;;7.13;4.72;;;18.40;57.50;;;;;;6213263;23;20004;-73
2021/03/31 05:06:47;;;;;;;7.88;4.55;;;18.30;57.30;;;;;;6213588;23;20000;-74
2021/03/31 05:09:13;;;;;;;7.35;4.47;;;18.30;57.40;;;;;;6213947;23;19996;-74
2021/03/31 05:11:39;;;;;;;6.43;4.03;;;18.30;57.40;;;;;;6213300;23;20032;-71
2021/03/31 05:14:05;;;;;;;6.90;4.45;;;18.30;57.30;;;;;;6187196;23;20052;-70
2021/03/31 05:16:31;;;;;;;7.78;4.72;;;18.30;57.30;;;;;;6213633;23;20417;-74
2021/03/31 05:18:56;;;;;;;7.82;5.07;;;18.30;57.40;;;;;;6213239;23;20039;-70
2021/03/31 05:21:22;;;;;;;6.07;4.43;;;18.30;57.30;;;;;;6213799;23;20071;-70
2021/03/31 05:23:48;;;;;;;9.25;4.10;;;18.30;57.30;;;;;;6186190;23;20433;-69
2021/03/31 05:26:13;;;;;;;8.70;4.88;;;18.30;57.30;;;;;;6212787;23;20012;-69
2021/03/31 05:28:39;;;;;;;5.97;4.30;;;18.20;57.20;;;;;;6213595;23;20020;-70
2021/03/31 05:31:04;;;;;;;7.45;4.90;;;18.20;57.30;;;;;;6213580;23;20311;-70
2021/03/31 05:33:30;;;;;;;6.45;4.72;;;18.20;57.40;;;;;;6212933;23;20009;-70
2021/03/31 05:35:56;;;;;;;7.90;5.07;;;18.20;57.20;;;;;;6213365;23;20007;-74
2021/03/31 05:38:21;;;;;;;7.35;4.60;;;18.20;57.30;;;;;;6213611;23;20013;-72
2021/03/31 05:40:47;;;;;;;7.80;5.05;;;18.20;57.30;;;;;;6186643;23;20005;-70
2021/03/31 05:43:15;;;;;;;7.68;4.43;;;18.20;57.30;;;;;;6209336;23;20000;-72
2021/03/31 05:45:42;;;;;;;9.05;5.03;;;18.20;57.30;;;;;;6212903;23;20441;-75
2021/03/31 05:48:09;;;;;;;6.75;5.10;;;18.20;57.40;;;;;;6213095;23;20031;-71
2021/03/31 05:50:34;;;;;;;7.72;4.95;;;18.20;57.40;;;;;;6207786;23;20035;-74
2021/03/31 05:53:00;;;;;;;7.63;5.20;;;18.20;57.40;;;;;;6211220;23;20012;-71
2021/03/31 05:55:25;;;;;;;6.35;4.45;;;18.20;57.50;;;;;;6212963;23;20337;-74
2021/03/31 05:57:51;;;;;;;8.82;4.78;;;18.20;57.30;;;;;;6212918;23;20008;-75
2021/03/31 06:00:19;;;;;;;6.93;4.60;;;18.20;57.30;;;;;;6186788;23;20008;-77
2021/03/31 06:02:46;;;;;;;8.15;4.97;;;18.20;57.20;;;;;;6213259;23;20467;-72
2021/03/31 06:05:13;;;;;;;7.95;5.13;;;18.20;57.10;;;;;;6213788;23;20012;-73
2021/03/31 06:07:41;;;;;;;8.98;4.68;;;18.20;57.10;;;;;;6213474;23;20778;-70
2021/03/31 06:10:10;;;;;;;9.45;4.70;;;18.20;57.10;;;;;;6214076;23;20012;-72
2021/03/31 06:12:38;;;;;;;7.82;4.90;;;18.30;57.10;;;;;;6213491;23;20096;-71
2021/03/31 06:15:11;;;;;;;6.22;4.55;;;18.30;57.10;;;;;;6213089;23;20005;-73
2021/03/31 06:18:12;;;;;;;5.18;3.60;;;18.40;57.10;;;;;;6213154;23;20443;-70
2021/03/31 06:20:56;;;;;;;8.40;4.88;;;18.50;57.20;;;;;;6192852;23;20001;-73
2021/03/31 06:26:18;;;;;;;7.32;4.80;;;18.70;57.60;;;;;;6212912;23;20009;-71
2021/03/31 06:28:55;;;;;;;9.57;4.85;;;18.70;58.00;;;;;;6186712;23;20004;-74
2021/03/31 06:31:22;;;;;;;12.30;5.95;;;18.80;58.20;;;;;;6213072;23;20008;-71
2021/03/31 06:33:49;;;;;;;12.70;5.97;;;18.90;58.20;;;;;;6213401;23;20326;-72
2021/03/31 06:36:18;;;;;;;13.73;6.13;;;18.90;58.40;;;;;;6213536;23;20336;-75
2021/03/31 06:38:50;;;;;;;12.00;5.95;;;19.00;58.70;;;;;;6213410;23;20023;-72
2021/03/31 06:41:26;;;;;;;12.70;5.13;;;19.10;58.40;;;;;;6188348;23;20055;-72
2021/03/31 06:44:30;;;;;;;13.77;6.53;;;19.10;58.60;;;;;;6215270;23;20004;-72
2021/03/31 06:46:54;;;;;;;10.93;6.20;;;19.20;58.50;;;;;;6210126;23;20000;-72
2021/03/31 06:49:20;;;;;;;12.70;6.55;;;19.30;58.50;;;;;;6213995;23;20012;-73
2021/03/31 06:51:45;;;;;;;13.70;6.60;;;19.30;58.50;;;;;;6204555;23;20426;-72
2021/03/31 06:54:19;;;;;;;10.90;6.22;;;19.40;58.50;;;;;;6213193;23;20009;-72
2021/03/31 06:56:52;;;;;;;9.25;5.93;;;19.40;58.50;;;;;;6214115;23;20686;-71
2021/03/31 06:59:32;;;;;;;15.57;8.02;;;19.50;58.30;;;;;;6213882;23;20019;-71
2021/03/31 07:02:00;;;;;;;15.57;6.80;;;19.50;58.40;;;;;;6212996;23;20000;-72
2021/03/31 07:04:28;;;;;;;14.50;7.30;;;19.50;58.20;;;;;;6213342;23;19996;-71
2021/03/31 07:07:08;;;;;;;15.55;7.65;;;19.50;58.10;;;;;;6214094;23;20009;-76
2021/03/31 07:09:38;;;;;;;13.15;6.22;;;19.50;57.90;;;;;;6213525;23;20004;-73
2021/03/31 07:12:21;;;;;;;16.05;6.25;;;19.50;57.80;;;;;;6213460;23;20001;-73
2021/03/31 07:14:49;;;;;;;12.30;5.72;;;19.60;57.80;;;;;;6213840;23;20020;-75
2021/03/31 07:17:24;;;;;;;13.02;6.80;;;19.60;57.70;;;;;;6213385;23;20465;-75
2021/03/31 07:19:51;;;;;;;17.73;6.20;;;19.60;57.70;;;;;;6213820;23;20009;-78
2021/03/31 07:22:17;;;;;;;13.73;6.38;;;19.60;57.70;;;;;;6213594;23;20007;-74
2021/03/31 07:24:42;;;;;;;11.27;5.55;;;19.60;57.60;;;;;;6213793;23;20543;-75
2021/03/31 07:27:08;;;;;;;12.45;5.38;;;19.60;57.60;;;;;;6214477;23;20004;-77
2021/03/31 07:29:36;;;;;;;10.65;5.40;;;19.60;57.60;;;;;;6213113;23;20008;-78
2021/03/31 07:32:04;;;;;;;10.70;5.82;;;19.60;57.70;;;;;;6211140;23;20000;-77
2021/03/31 07:34:32;;;;;;;13.48;5.82;;;19.60;57.60;;;;;;6212982;23;20008;-77
2021/03/31 07:36:59;;;;;;;13.25;5.80;;;19.60;57.50;;;;;;6214714;23;20009;-76
2021/03/31 07:39:29;;;;;;;11.20;5.70;;;19.60;57.50;;;;;;6214931;23;20007;-76
2021/03/31 07:41:57;;;;;;;9.80;5.05;;;19.60;57.70;;;;;;6214536;23;20011;-81
2021/03/31 07:44:27;;;;;;;10.02;5.72;;;19.60;57.60;;;;;;6214551;23;19997;-71
2021/03/31 07:46:54;;;;;;;11.23;5.25;;;19.60;57.50;;;;;;6214138;23;20386;-76
2021/03/31 07:49:22;;;;;;;12.65;5.20;;;19.60;57.60;;;;;;6214059;23;19997;-74
2021/03/31 07:52:00;;;;;;;11.30;6.00;;;19.60;57.60;;;;;;6214791;23;20147;-77
2021/03/31 07:54:26;;;;;;;12.75;5.88;;;19.60;57.70;;;;;;6214494;23;20034;-77
2021/03/31 07:56:54;;;;;;;13.10;5.68;;;19.50;57.60;;;;;;6214566;23;20307;-72
2021/03/31 07:59:20;;;;;;;12.00;5.35;;;19.60;57.60;;;;;;6187671;23;20015;-77
2021/03/31 08:01:49;;;;;;;12.80;5.20;;;19.60;57.70;;;;;;6214864;23;20000;-82
2021/03/31 08:04:20;;;;;;;9.18;5.25;;;19.60;57.60;;;;;;6214626;23;19997;-82
2021/03/31 08:06:49;;;;;;;9.23;4.93;;;19.60;57.60;;;;;;6214778;23;20062;-79
2021/03/31 08:09:33;;;;;;;12.15;5.35;;;19.50;57.50;;;;;;6214879;23;19997;-81
2021/03/31 08:12:06;;;;;;;11.30;5.40;;;19.50;57.50;;;;;;6214441;23;20005;-80
2021/03/31 08:14:35;;;;;;;7.85;4.72;;;19.60;57.60;;;;;;6214500;23;20012;-79
2021/03/31 08:17:03;;;;;;;8.98;5.00;;;19.50;57.40;;;;;;6214547;23;20005;-80
2021/03/31 08:19:32;;;;;;;12.32;5.07;;;19.60;57.50;;;;;;6214262;23;20433;-79
2021/03/31 08:22:17;;;;;;;8.15;5.15;;;19.60;57.20;;;;;;6214223;23;20027;-78
2021/03/31 08:24:46;;;;;;;7.83;5.47;;;19.60;57.10;;;;;;6214882;23;20008;-75
2021/03/31 08:27:13;;;;;;;8.10;4.72;;;19.60;57.00;;;;;;6214533;23;19997;-73
2021/03/31 08:29:42;;;;;;;8.70;5.10;;;19.60;57.00;;;;;;6214197;23;20027;-76
2021/03/31 08:32:08;;;;;;;10.27;4.72;;;19.60;56.90;;;;;;6187523;23;20319;-73
2021/03/31 08:34:35;;;;;;;7.25;4.45;;;19.60;56.90;;;;;;6213993;23;20015;-76
2021/03/31 08:37:03;;;;;;;9.32;5.07;;;19.60;56.80;;;;;;6213809;23;20326;-71
2021/03/31 08:39:29;;;;;;;8.95;4.70;;;19.60;56.90;;;;;;6214443;23;20005;-71
2021/03/31 08:41:56;;;;;;;6.65;4.70;;;19.60;56.90;;;;;;6214143;23;20008;-76
2021/03/31 08:44:38;;;;;;;9.25;4.90;;;19.60;56.80;;;;;;6213973;23;20004;-79
2021/03/31 08:47:23;;;;;;;8.63;5.03;;;19.60;56.80;;;;;;6213964;23;20000;-74
2021/03/31 08:49:51;;;;;;;9.93;4.95;;;19.60;56.80;;;;;;6213886;23;20011;-70
2021/03/31 08:52:20;;;;;;;9.20;5.20;;;19.60;56.80;;;;;;6214019;23;20721;-78
2021/03/31 08:54:49;;;;;;;8.23;4.18;;;19.60;56.90;;;;;;6214264;23;20008;-75
2021/03/31 08:57:21;;;;;;;8.85;5.50;;;19.60;56.80;;;;;;6187948;23;20027;-80
2021/03/31 08:59:51;;;;;;;8.23;4.97;;;19.60;56.90;;;;;;6213905;23;20008;-73
2021/03/31 09:02:25;;;;;;;6.40;4.80;;;19.70;56.80;;;;;;6213766;23;20128;-77
2021/03/31 09:04:52;;;;;;;8.18;4.63;;;19.60;56.80;;;;;;6213993;23;20004;-75
2021/03/31 09:07:18;;;;;;;10.55;5.72;;;19.60;56.80;;;;;;6213874;23;20452;-78
2021/03/31 09:09:45;;;;;;;8.27;4.90;;;19.70;56.90;;;;;;6214009;23;20032;-79
2021/03/31 09:12:12;;;;;;;7.28;4.60;;;19.70;57.00;;;;;;6213562;23;20014;-78
2021/03/31 09:14:46;;;;;;;13.20;5.55;;;19.60;57.10;;;;;;6213527;23;20050;-78
2021/03/31 09:17:17;;;;;;;10.43;5.00;;;19.60;57.10;;;;;;6213829;23;20083;-79
2021/03/31 09:19:43;;;;;;;6.80;4.88;;;19.60;57.10;;;;;;6213643;23;20004;-75
2021/03/31 09:22:12;;;;;;;9.95;5.22;;;19.70;57.20;;;;;;6213846;23;20014;-78
2021/03/31 09:24:50;;;;;;;10.18;4.75;;;19.60;57.10;;;;;;6213353;23;20085;-77
2021/03/31 09:27:28;;;;;;;9.38;4.75;;;19.70;57.00;;;;;;6214271;23;20023;-80
2021/03/31 09:29:55;;;;;;;7.38;4.40;;;19.70;57.00;;;;;;6186653;23;20036;-79
2021/03/31 09:32:26;;;;;;;9.75;5.75;;;19.70;57.10;;;;;;6213502;23;20088;-79
2021/03/31 09:34:52;;;;;;;7.35;4.53;;;19.70;57.20;;;;;;6213251;23;20004;-74
2021/03/31 09:37:21;;;;;;;6.88;4.13;;;19.70;57.20;;;;;;6213870;23;20008;-79
2021/03/31 09:39:56;;;;;;;8.20;4.45;;;19.70;57.10;;;;;;6214123;23;20008;-79
2021/03/31 09:42:25;;;;;;;6.55;4.22;;;19.70;57.20;;;;;;6213369;23;20448;-73
2021/03/31 09:44:53;;;;;;;6.97;4.70;;;19.70;57.10;;;;;;6186845;23;20020;-73
2021/03/31 09:47:21;;;;;;;7.25;4.78;;;19.70;57.10;;;;;;6186998;23;20005;-73
2021/03/31 09:49:51;;;;;;;8.80;4.50;;;19.70;57.10;;;;;;6213860;23;20072;-72
2021/03/31 09:52:17;;;;;;;9.73;5.15;;;19.70;57.10;;;;;;6186780;23;20345;-71
2021/03/31 09:54:45;;;;;;;10.65;5.00;;;19.80;57.10;;;;;;6213643;23;20009;-79
2021/03/31 09:57:15;;;;;;;8.02;4.90;;;19.70;57.10;;;;;;6213413;23;19996;-78
2021/03/31 09:59:42;;;;;;;8.30;4.82;;;19.80;57.20;;;;;;6186819;23;20009;-74
2021/03/31 10:02:09;;;;;;;9.30;5.03;;;19.80;57.10;;;;;;6213148;23;20441;-74
2021/03/31 10:04:40;;;;;;;9.98;5.70;;;19.80;57.10;;;;;;6213228;23;20000;-71
2021/03/31 10:07:18;;;;;;;8.00;5.00;;;19.80;57.10;;;;;;6186659;23;20372;-71
2021/03/31 10:09:48;;;;;;;7.85;5.18;;;19.80;57.10;;;;;;6213182;23;20005;-71
2021/03/31 10:12:29;;;;;;;7.82;5.00;;;19.80;57.10;;;;;;6213214;23;20000;-72
2021/03/31 10:14:59;;;;;;;10.10;5.63;;;19.90;57.20;;;;;;6215211;23;20005;-73
2021/03/31 10:17:28;;;;;;;10.57;5.53;;;19.90;57.20;;;;;;6215734;23;20000;-73
2021/03/31 10:19:54;;;;;;;10.70;5.82;;;19.90;57.10;;;;;;6215411;23;20068;-73
2021/03/31 10:22:20;;;;;;;12.40;5.78;;;19.90;57.10;;;;;;6215577;23;20001;-73
2021/03/31 10:24:49;;;;;;;10.80;6.03;;;19.90;57.10;;;;;;6215198;23;20023;-72
2021/03/31 10:27:16;;;;;;;10.95;6.38;;;19.90;57.10;;;;;;6215043;23;19996;-73
2021/03/31 10:29:53;;;;;;;10.40;5.75;;;19.90;57.10;;;;;;6215319;23;20005;-73
2021/03/31 10:32:21;;;;;;;8.88;5.97;;;20.00;57.10;;;;;;6215358;23;20075;-73
2021/03/31 10:34:51;;;;;;;10.80;6.18;;;19.90;57.00;;;;;;6215113;23;20345;-73
2021/03/31 10:40:19;;;;;;;9.80;6.00;;;20.00;57.10;;;;;;6215144;23;20009;-72
2021/03/31 10:51:13;;;;;;;13.98;6.78;;;20.10;57.20;;;;;;6214273;23;20009;-72
2021/03/31 10:53:51;;;;;;;13.38;6.95;;;20.10;57.10;;;;;;6212903;23;20381;-76
2021/03/31 10:56:17;;;;;;;14.60;8.55;;;20.10;57.20;;;;;;6214164;23;20055;-71
2021/03/31 10:58:43;;;;;;;12.43;7.78;;;20.20;57.10;;;;;;6214041;23;20005;-74
2021/03/31 11:01:09;;;;;;;15.10;7.57;;;20.20;57.10;;;;;;6213208;23;20311;-73
2021/03/31 11:03:35;;;;;;;13.32;7.30;;;20.20;57.00;;;;;;6213303;23;20445;-71
2021/03/31 11:06:01;;;;;;;13.73;8.02;;;20.30;57.00;;;;;;6213220;23;20072;-72
2021/03/31 11:08:27;;;;;;;12.70;7.75;;;20.30;56.90;;;;;;6213573;23;20001;-72
2021/03/31 11:10:53;;;;;;;16.02;7.65;;;20.40;56.90;;;;;;6214014;23;20004;-73
2021/03/31 11:13:18;;;;;;;12.05;6.72;;;20.40;56.80;;;;;;6213514;23;20004;-75
2021/03/31 11:15:45;;;;;;;14.07;6.75;;;20.50;56.80;;;;;;6214065;23;20078;-72
2021/03/31 11:21:18;;;;;;;11.20;6.82;;;20.50;56.60;;;;;;6212572;23;20397;-72
2021/03/31 11:26:27;;;;;;;14.05;7.25;;;20.60;56.50;;;;;;6212832;23;20015;-74
2021/03/31 11:28:53;;;;;;;12.32;6.97;;;20.60;56.50;;;;;;6213730;23;20414;-71
2021/03/31 11:31:19;;;;;;;13.93;7.15;;;20.70;56.50;;;;;;6213101;23;20009;-71
2021/03/31 11:33:45;;;;;;;11.98;7.13;;;20.70;56.30;;;;;;6212550;23;20020;-71
2021/03/31 11:36:11;;;;;;;12.85;6.82;;;20.80;56.30;;;;;;6212207;23;20009;-72
2021/03/31 11:38:36;;;;;;;11.82;6.72;;;20.80;56.20;;;;;;6211831;23;20094;-69
2021/03/31 11:41:03;;;;;;;10.82;6.72;;;20.90;56.30;;;;;;6212143;23;19997;-70
2021/03/31 11:43:29;;;;;;;11.15;6.00;;;21.00;56.20;;;;;;6186837;23;20043;-71
2021/03/31 11:45:55;;;;;;;12.02;6.90;;;21.00;56.20;;;;;;6214088;23;20415;-71
2021/03/31 11:48:20;;;;;;;9.75;5.85;;;21.10;56.30;;;;;;6213838;23;20001;-71
2021/03/31 11:50:46;;;;;;;14.13;6.63;;;21.20;56.60;;;;;;6213693;23;20004;-74
2021/03/31 11:53:13;;;;;;;11.50;6.18;;;21.30;56.80;;;;;;6212640;23;20016;-76
2021/03/31 11:55:39;;;;;;;10.40;6.68;;;21.30;56.90;;;;;;6213722;23;20448;-76
2021/03/31 11:58:05;;;;;;;12.45;6.25;;;21.40;56.90;;;;;;6213586;23;20008;-73
2021/03/31 12:00:31;;;;;;;10.82;6.57;;;21.50;56.80;;;;;;6213686;23;20027;-72
2021/03/31 12:02:57;;;;;;;9.55;5.88;;;21.50;56.60;;;;;;6213369;23;20067;-78
2021/03/31 12:05:22;;;;;;;15.40;6.05;;;21.60;56.80;;;;;;6213400;23;20004;-77
2021/03/31 12:07:48;;;;;;;12.88;6.78;;;21.60;57.20;;;;;;6186372;23;20043;-77
2021/03/31 12:10:14;;;;;;;10.25;6.07;;;21.70;57.00;;;;;;6212877;23;20000;-77
2021/03/31 12:12:41;;;;;;;11.18;6.32;;;21.70;56.60;;;;;;6187377;23;20013;-77
2021/03/31 12:15:10;;;;;;;12.15;5.93;;;21.80;56.40;;;;;;6213894;23;20004;-77
2021/03/31 12:17:37;;;;;;;10.48;5.78;;;21.80;56.30;;;;;;6214072;23;19997;-76
2021/03/31 12:20:05;;;;;;;9.25;5.45;;;21.90;56.10;;;;;;6214022;23;20055;-77
2021/03/31 12:22:31;;;;;;;12.27;5.57;;;21.90;56.00;;;;;;6214382;23;20027;-77
2021/03/31 12:24:57;;;;;;;9.30;5.85;;;22.00;56.00;;;;;;6214412;23;20001;-77
2021/03/31 12:27:23;;;;;;;8.77;5.15;;;22.00;55.80;;;;;;6214364;23;20001;-77
2021/03/31 12:29:50;;;;;;;10.70;5.90;;;22.00;55.60;;;;;;6214481;23;20008;-78
2021/03/31 12:32:16;;;;;;;9.40;5.68;;;22.10;55.60;;;;;;6214037;23;19997;-77
2021/03/31 12:34:44;;;;;;;10.10;5.55;;;22.20;55.40;;;;;;6214220;23;20023;-78
2021/03/31 12:37:11;;;;;;;8.65;5.35;;;22.20;55.20;;;;;;6214033;23;20012;-77
2021/03/31 12:39:36;;;;;;;8.23;4.68;;;22.30;55.10;;;;;;6213974;23;20004;-75
2021/03/31 12:42:03;;;;;;;8.52;4.88;;;22.30;54.90;;;;;;6214068;23;20024;-76
2021/03/31 12:44:28;;;;;;;7.03;4.68;;;22.40;54.80;;;;;;6213960;23;20028;-77
2021/03/31 12:46:54;;;;;;;8.85;4.78;;;22.50;54.70;;;;;;6214009;23;20016;-76
2021/03/31 12:49:19;;;;;;;8.93;4.80;;;22.50;54.50;;;;;;6214526;23;20075;-77
2021/03/31 12:51:49;;;;;;;6.88;4.70;;;22.60;54.40;;;;;;6187490;23;20020;-77
2021/03/31 12:57:15;;;;;;;7.20;4.38;;;22.70;54.10;;;;;;6092848;23;20348;-76
2021/03/31 12:59:41;;;;;;;8.75;4.88;;;22.70;54.00;;;;;;6188519;23;20011;-77
2021/03/31 13:02:07;;;;;;;7.90;4.70;;;22.80;53.90;;;;;;6187473;23;20063;-77
2021/03/31 13:04:33;;;;;;;9.63;4.63;;;22.80;53.80;;;;;;6213514;23;20011;-77
2021/03/31 13:06:58;;;;;;;6.32;3.97;;;22.90;53.80;;;;;;6213326;23;20024;-76
2021/03/31 13:09:24;;;;;;;7.80;3.97;;;22.90;53.60;;;;;;6214118;23;20453;-74
2021/03/31 13:11:52;;;;;;;7.30;4.10;;;22.90;53.50;;;;;;6213602;23;20032;-76
2021/03/31 13:22:44;;;;;;;7.82;4.82;;;23.10;53.30;;;;;;6214044;23;20015;-71